sensor_id;sensor_type;location;lat;lon;timestamp;temperature;humidity
70986;DHT22;58645;43.068;25.610;2022-12-07T00:01:09;5.30;99.90
70986;DHT22;58645;43.068;25.610;2022-12-07T00:03:35;5.30;99.90
70986;DHT22;58645;43.068;25.610;2022-12-07T00:06:03;5.30;99.90
70986;DHT22;58645;43.068;25.610;2022-12-07T00:08:30;5.30;99.90
70986;DHT22;58645;43.068;25.610;2022-12-07T00:11:01;5.40;99.90
70986;DHT22;58645;43.068;25.610;2022-12-07T00:13:27;5.40;99.90
70986;DHT22;58645;43.068;25.610;2022-12-07T00:15:52;5.40;99.90
70986;DHT22;58645;43.068;25.610;2022-12-07T00:18:18;5.30;99.90
70986;DHT22;58645;43.068;25.610;2022-12-07T00:20:44;5.30;99.90
70986;DHT22;58645;43.068;25.610;2022-12-07T00:23:09;5.40;99.90
70986;DHT22;58645;43.068;25.610;2022-12-07T00:25:35;5.40;99.90
70986;DHT22;58645;43.068;25.610;2022-12-07T00:28:01;5.40;99.90
70986;DHT22;58645;43.068;25.610;2022-12-07T00:30:26;5.40;99.90
70986;DHT22;58645;43.068;25.610;2022-12-07T00:32:52;5.50;99.90
70986;DHT22;58645;43.068;25.610;2022-12-07T00:35:18;5.50;99.90
70986;DHT22;58645;43.068;25.610;2022-12-07T00:37:44;5.60;99.90
70986;DHT22;58645;43.068;25.610;2022-12-07T00:40:10;5.60;99.90
70986;DHT22;58645;43.068;25.610;2022-12-07T00:42:35;5.70;99.90
70986;DHT22;58645;43.068;25.610;2022-12-07T00:45:01;5.70;99.90
70986;DHT22;58645;43.068;25.610;2022-12-07T00:47:27;5.70;99.90
70986;DHT22;58645;43.068;25.610;2022-12-07T00:49:52;5.60;99.90
70986;DHT22;58645;43.068;25.610;2022-12-07T00:52:18;5.60;99.90
70986;DHT22;58645;43.068;25.610;2022-12-07T00:54:44;5.70;99.90
70986;DHT22;58645;43.068;25.610;2022-12-07T00:57:09;5.70;99.90
70986;DHT22;58645;43.068;25.610;2022-12-07T00:59:35;5.70;99.90
70986;DHT22;58645;43.068;25.610;2022-12-07T01:02:01;5.70;99.90
70986;DHT22;58645;43.068;25.610;2022-12-07T01:04:27;5.70;99.90
70986;DHT22;58645;43.068;25.610;2022-12-07T01:06:52;5.70;99.90
70986;DHT22;58645;43.068;25.610;2022-12-07T01:09:18;5.70;99.90
70986;DHT22;58645;43.068;25.610;2022-12-07T01:11:44;5.90;99.90
70986;DHT22;58645;43.068;25.610;2022-12-07T01:14:10;5.70;99.90
70986;DHT22;58645;43.068;25.610;2022-12-07T01:16:35;5.70;99.90
70986;DHT22;58645;43.068;25.610;2022-12-07T01:19:02;5.70;99.90
70986;DHT22;58645;43.068;25.610;2022-12-07T01:21:33;5.80;99.90
70986;DHT22;58645;43.068;25.610;2022-12-07T01:24:01;5.70;99.90
70986;DHT22;58645;43.068;25.610;2022-12-07T01:26:27;5.80;99.90
70986;DHT22;58645;43.068;25.610;2022-12-07T01:28:53;5.80;99.90
70986;DHT22;58645;43.068;25.610;2022-12-07T01:31:22;5.80;99.90
70986;DHT22;58645;43.068;25.610;2022-12-07T01:33:51;5.80;99.90
70986;DHT22;58645;43.068;25.610;2022-12-07T01:38:50;5.80;99.90
70986;DHT22;58645;43.068;25.610;2022-12-07T01:41:18;5.70;99.90
70986;DHT22;58645;43.068;25.610;2022-12-07T01:46:29;5.80;99.90
70986;DHT22;58645;43.068;25.610;2022-12-07T01:48:54;5.80;99.90
70986;DHT22;58645;43.068;25.610;2022-12-07T01:51:20;5.80;99.90
70986;DHT22;58645;43.068;25.610;2022-12-07T01:53:46;5.70;99.90
70986;DHT22;58645;43.068;25.610;2022-12-07T01:56:17;5.80;99.90
70986;DHT22;58645;43.068;25.610;2022-12-07T01:58:44;5.70;99.90
70986;DHT22;58645;43.068;25.610;2022-12-07T02:01:11;5.70;99.90
70986;DHT22;58645;43.068;25.610;2022-12-07T02:03:40;5.70;99.90
70986;DHT22;58645;43.068;25.610;2022-12-07T02:06:07;5.70;99.90
70986;DHT22;58645;43.068;25.610;2022-12-07T02:08:33;5.70;99.90
70986;DHT22;58645;43.068;25.610;2022-12-07T02:11:02;5.70;99.90
70986;DHT22;58645;43.068;25.610;2022-12-07T02:13:31;5.70;99.90
70986;DHT22;58645;43.068;25.610;2022-12-07T02:16:25;5.80;99.90
70986;DHT22;58645;43.068;25.610;2022-12-07T02:21:45;5.70;99.90
70986;DHT22;58645;43.068;25.610;2022-12-07T02:24:19;5.70;99.90
70986;DHT22;58645;43.068;25.610;2022-12-07T02:29:39;5.70;99.90
70986;DHT22;58645;43.068;25.610;2022-12-07T02:37:43;5.70;99.90
70986;DHT22;58645;43.068;25.610;2022-12-07T02:40:31;5.70;99.90
70986;DHT22;58645;43.068;25.610;2022-12-07T02:43:26;5.70;99.90
70986;DHT22;58645;43.068;25.610;2022-12-07T02:45:56;5.70;99.90
70986;DHT22;58645;43.068;25.610;2022-12-07T02:48:24;5.70;99.90
70986;DHT22;58645;43.068;25.610;2022-12-07T02:50:51;5.70;99.90
70986;DHT22;58645;43.068;25.610;2022-12-07T02:53:30;5.70;99.90
70986;DHT22;58645;43.068;25.610;2022-12-07T02:55:56;5.70;99.90
70986;DHT22;58645;43.068;25.610;2022-12-07T03:03:58;5.50;99.90
70986;DHT22;58645;43.068;25.610;2022-12-07T03:07:01;5.40;99.90
70986;DHT22;58645;43.068;25.610;2022-12-07T03:09:32;5.30;99.90
70986;DHT22;58645;43.068;25.610;2022-12-07T03:12:29;5.20;99.90
70986;DHT22;58645;43.068;25.610;2022-12-07T03:15:05;5.20;99.90
70986;DHT22;58645;43.068;25.610;2022-12-07T03:17:35;5.20;99.90
70986;DHT22;58645;43.068;25.610;2022-12-07T03:20:04;5.20;99.90
70986;DHT22;58645;43.068;25.610;2022-12-07T03:22:34;5.20;99.90
70986;DHT22;58645;43.068;25.610;2022-12-07T03:25:05;5.20;99.90
70986;DHT22;58645;43.068;25.610;2022-12-07T03:27:57;5.20;99.90
70986;DHT22;58645;43.068;25.610;2022-12-07T03:30:37;5.20;99.90
70986;DHT22;58645;43.068;25.610;2022-12-07T03:36:02;5.30;99.90
70986;DHT22;58645;43.068;25.610;2022-12-07T03:41:44;5.30;99.90
70986;DHT22;58645;43.068;25.610;2022-12-07T03:44:10;5.30;99.90
70986;DHT22;58645;43.068;25.610;2022-12-07T03:46:39;5.30;99.90
70986;DHT22;58645;43.068;25.610;2022-12-07T03:49:30;5.30;99.90
70986;DHT22;58645;43.068;25.610;2022-12-07T03:55:03;5.30;99.90
70986;DHT22;58645;43.068;25.610;2022-12-07T03:57:31;5.30;99.90
70986;DHT22;58645;43.068;25.610;2022-12-07T03:59:58;5.30;99.90
70986;DHT22;58645;43.068;25.610;2022-12-07T04:02:26;5.30;99.90
70986;DHT22;58645;43.068;25.610;2022-12-07T04:04:52;5.30;99.90
70986;DHT22;58645;43.068;25.610;2022-12-07T04:07:18;5.30;99.90
70986;DHT22;58645;43.068;25.610;2022-12-07T04:09:44;5.40;99.90
70986;DHT22;58645;43.068;25.610;2022-12-07T04:12:10;5.40;99.90
70986;DHT22;58645;43.068;25.610;2022-12-07T04:14:35;5.40;99.90
70986;DHT22;58645;43.068;25.610;2022-12-07T04:17:01;5.30;99.90
70986;DHT22;58645;43.068;25.610;2022-12-07T04:19:29;5.30;99.90
70986;DHT22;58645;43.068;25.610;2022-12-07T04:21:56;5.30;99.90
70986;DHT22;58645;43.068;25.610;2022-12-07T04:24:23;5.30;99.90
70986;DHT22;58645;43.068;25.610;2022-12-07T04:26:49;5.30;99.90
70986;DHT22;58645;43.068;25.610;2022-12-07T04:29:16;5.30;99.90
70986;DHT22;58645;43.068;25.610;2022-12-07T04:31:42;5.20;99.90
70986;DHT22;58645;43.068;25.610;2022-12-07T04:34:08;5.20;99.90
70986;DHT22;58645;43.068;25.610;2022-12-07T04:36:34;5.20;99.90
70986;DHT22;58645;43.068;25.610;2022-12-07T04:39:00;5.20;99.90
70986;DHT22;58645;43.068;25.610;2022-12-07T04:41:26;5.30;99.90
70986;DHT22;58645;43.068;25.610;2022-12-07T04:43:58;5.30;99.90
70986;DHT22;58645;43.068;25.610;2022-12-07T04:46:24;5.20;99.90
70986;DHT22;58645;43.068;25.610;2022-12-07T04:48:51;5.30;99.90
70986;DHT22;58645;43.068;25.610;2022-12-07T04:51:20;5.20;99.90
70986;DHT22;58645;43.068;25.610;2022-12-07T04:53:46;5.20;99.90
70986;DHT22;58645;43.068;25.610;2022-12-07T04:56:12;5.30;99.90
70986;DHT22;58645;43.068;25.610;2022-12-07T04:58:38;5.30;99.90
70986;DHT22;58645;43.068;25.610;2022-12-07T05:01:04;5.30;99.90
70986;DHT22;58645;43.068;25.610;2022-12-07T05:03:30;5.30;99.90
70986;DHT22;58645;43.068;25.610;2022-12-07T05:05:55;5.30;99.90
70986;DHT22;58645;43.068;25.610;2022-12-07T05:08:21;5.40;99.90
70986;DHT22;58645;43.068;25.610;2022-12-07T05:10:48;5.40;99.90
70986;DHT22;58645;43.068;25.610;2022-12-07T05:13:14;5.40;99.90
70986;DHT22;58645;43.068;25.610;2022-12-07T05:15:40;5.40;99.90
70986;DHT22;58645;43.068;25.610;2022-12-07T05:18:06;5.50;99.90
70986;DHT22;58645;43.068;25.610;2022-12-07T05:20:32;5.50;99.90
70986;DHT22;58645;43.068;25.610;2022-12-07T05:22:57;5.50;99.90
70986;DHT22;58645;43.068;25.610;2022-12-07T05:25:24;5.40;99.90
70986;DHT22;58645;43.068;25.610;2022-12-07T05:27:49;5.40;99.90
70986;DHT22;58645;43.068;25.610;2022-12-07T05:30:15;5.30;99.90
70986;DHT22;58645;43.068;25.610;2022-12-07T05:32:41;5.30;99.90
70986;DHT22;58645;43.068;25.610;2022-12-07T05:35:07;5.30;99.90
70986;DHT22;58645;43.068;25.610;2022-12-07T05:37:33;5.30;99.90
70986;DHT22;58645;43.068;25.610;2022-12-07T05:39:59;5.30;99.90
70986;DHT22;58645;43.068;25.610;2022-12-07T05:42:24;5.20;99.90
70986;DHT22;58645;43.068;25.610;2022-12-07T05:44:50;5.20;99.90
70986;DHT22;58645;43.068;25.610;2022-12-07T05:47:16;5.20;99.90
70986;DHT22;58645;43.068;25.610;2022-12-07T05:49:42;5.20;99.90
70986;DHT22;58645;43.068;25.610;2022-12-07T05:52:08;5.20;99.90
70986;DHT22;58645;43.068;25.610;2022-12-07T05:54:34;5.30;99.90
70986;DHT22;58645;43.068;25.610;2022-12-07T05:57:03;5.30;99.90
70986;DHT22;58645;43.068;25.610;2022-12-07T05:59:29;5.20;99.90
70986;DHT22;58645;43.068;25.610;2022-12-07T06:02:00;5.20;99.90
70986;DHT22;58645;43.068;25.610;2022-12-07T06:04:28;5.20;99.90
70986;DHT22;58645;43.068;25.610;2022-12-07T06:06:54;4.80;99.90
70986;DHT22;58645;43.068;25.610;2022-12-07T06:09:22;5.20;99.90
70986;DHT22;58645;43.068;25.610;2022-12-07T06:11:48;5.20;99.90
70986;DHT22;58645;43.068;25.610;2022-12-07T06:14:33;5.20;99.90
70986;DHT22;58645;43.068;25.610;2022-12-07T06:16:59;5.20;99.90
70986;DHT22;58645;43.068;25.610;2022-12-07T06:19:24;5.30;99.90
70986;DHT22;58645;43.068;25.610;2022-12-07T06:21:50;5.30;99.90
70986;DHT22;58645;43.068;25.610;2022-12-07T06:24:17;5.50;99.90
70986;DHT22;58645;43.068;25.610;2022-12-07T06:26:43;5.50;99.90
70986;DHT22;58645;43.068;25.610;2022-12-07T06:29:09;5.50;99.90
70986;DHT22;58645;43.068;25.610;2022-12-07T06:31:36;5.50;99.90
70986;DHT22;58645;43.068;25.610;2022-12-07T06:34:07;5.60;99.90
70986;DHT22;58645;43.068;25.610;2022-12-07T06:36:34;5.70;99.90
70986;DHT22;58645;43.068;25.610;2022-12-07T06:39:01;5.90;99.90
70986;DHT22;58645;43.068;25.610;2022-12-07T06:41:27;6.10;99.90
70986;DHT22;58645;43.068;25.610;2022-12-07T06:43:53;6.40;99.90
70986;DHT22;58645;43.068;25.610;2022-12-07T06:46:23;6.50;99.90
70986;DHT22;58645;43.068;25.610;2022-12-07T06:48:49;6.70;99.90
70986;DHT22;58645;43.068;25.610;2022-12-07T06:51:17;6.70;99.90
70986;DHT22;58645;43.068;25.610;2022-12-07T06:53:43;6.80;99.90
70986;DHT22;58645;43.068;25.610;2022-12-07T06:56:09;6.90;99.90
70986;DHT22;58645;43.068;25.610;2022-12-07T06:58:34;7.00;99.90
70986;DHT22;58645;43.068;25.610;2022-12-07T07:01:00;7.20;99.90
70986;DHT22;58645;43.068;25.610;2022-12-07T07:03:26;7.40;99.90
70986;DHT22;58645;43.068;25.610;2022-12-07T07:05:52;7.40;99.90
70986;DHT22;58645;43.068;25.610;2022-12-07T07:08:21;7.40;99.90
70986;DHT22;58645;43.068;25.610;2022-12-07T07:10:46;7.40;99.90
70986;DHT22;58645;43.068;25.610;2022-12-07T07:13:12;7.30;99.90
70986;DHT22;58645;43.068;25.610;2022-12-07T07:15:38;7.20;99.90
70986;DHT22;58645;43.068;25.610;2022-12-07T07:18:04;7.10;99.90
70986;DHT22;58645;43.068;25.610;2022-12-07T07:20:30;7.00;99.90
70986;DHT22;58645;43.068;25.610;2022-12-07T07:22:56;6.90;99.90
70986;DHT22;58645;43.068;25.610;2022-12-07T07:25:22;7.00;99.90
70986;DHT22;58645;43.068;25.610;2022-12-07T07:27:47;7.20;99.90
70986;DHT22;58645;43.068;25.610;2022-12-07T07:30:13;7.30;99.90
70986;DHT22;58645;43.068;25.610;2022-12-07T07:32:40;7.40;99.90
70986;DHT22;58645;43.068;25.610;2022-12-07T07:35:09;7.60;99.90
70986;DHT22;58645;43.068;25.610;2022-12-07T07:37:35;7.70;99.90
70986;DHT22;58645;43.068;25.610;2022-12-07T07:40:00;7.70;99.90
70986;DHT22;58645;43.068;25.610;2022-12-07T07:42:29;7.70;99.90
70986;DHT22;58645;43.068;25.610;2022-12-07T07:44:55;7.70;99.90
70986;DHT22;58645;43.068;25.610;2022-12-07T07:47:21;7.70;99.90
70986;DHT22;58645;43.068;25.610;2022-12-07T07:49:47;7.70;99.90
70986;DHT22;58645;43.068;25.610;2022-12-07T07:52:13;7.80;99.90
70986;DHT22;58645;43.068;25.610;2022-12-07T07:54:39;8.20;99.90
70986;DHT22;58645;43.068;25.610;2022-12-07T07:57:04;8.20;99.90
70986;DHT22;58645;43.068;25.610;2022-12-07T07:59:30;8.20;99.90
70986;DHT22;58645;43.068;25.610;2022-12-07T08:01:56;8.20;99.90
70986;DHT22;58645;43.068;25.610;2022-12-07T08:04:22;8.20;99.90
70986;DHT22;58645;43.068;25.610;2022-12-07T08:06:47;8.20;99.90
70986;DHT22;58645;43.068;25.610;2022-12-07T08:09:13;8.30;99.90
70986;DHT22;58645;43.068;25.610;2022-12-07T08:11:39;8.70;99.90
70986;DHT22;58645;43.068;25.610;2022-12-07T08:14:05;9.00;99.90
70986;DHT22;58645;43.068;25.610;2022-12-07T08:16:30;9.50;99.90
70986;DHT22;58645;43.068;25.610;2022-12-07T08:18:57;9.70;99.90
70986;DHT22;58645;43.068;25.610;2022-12-07T08:21:22;9.80;99.90
70986;DHT22;58645;43.068;25.610;2022-12-07T08:23:48;9.30;99.90
70986;DHT22;58645;43.068;25.610;2022-12-07T08:26:15;9.10;99.90
70986;DHT22;58645;43.068;25.610;2022-12-07T08:28:41;9.00;99.90
70986;DHT22;58645;43.068;25.610;2022-12-07T08:31:10;9.20;99.90
70986;DHT22;58645;43.068;25.610;2022-12-07T08:33:37;9.40;99.90
70986;DHT22;58645;43.068;25.610;2022-12-07T08:36:09;9.50;99.90
70986;DHT22;58645;43.068;25.610;2022-12-07T08:38:35;9.40;99.90
70986;DHT22;58645;43.068;25.610;2022-12-07T08:41:01;9.40;99.90
70986;DHT22;58645;43.068;25.610;2022-12-07T08:43:27;9.40;99.90
70986;DHT22;58645;43.068;25.610;2022-12-07T08:46:11;9.50;99.90
70986;DHT22;58645;43.068;25.610;2022-12-07T08:48:43;9.70;99.90
70986;DHT22;58645;43.068;25.610;2022-12-07T08:51:10;10.20;99.90
70986;DHT22;58645;43.068;25.610;2022-12-07T08:53:37;10.80;99.90
70986;DHT22;58645;43.068;25.610;2022-12-07T08:56:04;11.50;99.90
70986;DHT22;58645;43.068;25.610;2022-12-07T08:58:29;12.20;99.90
70986;DHT22;58645;43.068;25.610;2022-12-07T09:00:56;12.90;98.50
70986;DHT22;58645;43.068;25.610;2022-12-07T09:03:21;13.20;95.50
70986;DHT22;58645;43.068;25.610;2022-12-07T09:05:47;13.50;91.70
70986;DHT22;58645;43.068;25.610;2022-12-07T09:08:13;13.30;88.70
70986;DHT22;58645;43.068;25.610;2022-12-07T09:10:41;13.60;87.00
70986;DHT22;58645;43.068;25.610;2022-12-07T09:13:07;13.80;86.50
70986;DHT22;58645;43.068;25.610;2022-12-07T09:15:33;14.00;83.80
70986;DHT22;58645;43.068;25.610;2022-12-07T09:17:58;14.60;82.30
70986;DHT22;58645;43.068;25.610;2022-12-07T09:20:24;14.90;80.50
70986;DHT22;58645;43.068;25.610;2022-12-07T09:22:50;15.50;78.20
70986;DHT22;58645;43.068;25.610;2022-12-07T09:25:19;15.70;76.10
70986;DHT22;58645;43.068;25.610;2022-12-07T09:28:00;15.90;73.50
70986;DHT22;58645;43.068;25.610;2022-12-07T09:30:48;15.70;73.00
70986;DHT22;58645;43.068;25.610;2022-12-07T09:33:14;15.60;73.50
70986;DHT22;58645;43.068;25.610;2022-12-07T09:35:50;15.60;72.70
70986;DHT22;58645;43.068;25.610;2022-12-07T09:38:16;15.60;72.80
70986;DHT22;58645;43.068;25.610;2022-12-07T09:40:43;15.40;73.30
70986;DHT22;58645;43.068;25.610;2022-12-07T09:43:23;14.90;73.70
70986;DHT22;58645;43.068;25.610;2022-12-07T09:45:55;14.30;74.70
70986;DHT22;58645;43.068;25.610;2022-12-07T09:48:25;14.10;77.40
70986;DHT22;58645;43.068;25.610;2022-12-07T09:50:55;14.60;77.10
70986;DHT22;58645;43.068;25.610;2022-12-07T09:53:27;15.10;75.10
70986;DHT22;58645;43.068;25.610;2022-12-07T09:55:57;15.70;72.70
70986;DHT22;58645;43.068;25.610;2022-12-07T09:58:26;16.50;70.10
70986;DHT22;58645;43.068;25.610;2022-12-07T10:00:57;16.80;68.50
70986;DHT22;58645;43.068;25.610;2022-12-07T10:03:25;16.40;69.60
70986;DHT22;58645;43.068;25.610;2022-12-07T10:05:52;16.20;71.50
70986;DHT22;58645;43.068;25.610;2022-12-07T10:08:18;16.00;71.60
70986;DHT22;58645;43.068;25.610;2022-12-07T10:10:56;15.90;70.50
70986;DHT22;58645;43.068;25.610;2022-12-07T10:13:40;15.80;70.20
70986;DHT22;58645;43.068;25.610;2022-12-07T10:16:31;15.40;71.90
70986;DHT22;58645;43.068;25.610;2022-12-07T10:19:24;15.70;73.30
70986;DHT22;58645;43.068;25.610;2022-12-07T10:24:25;15.90;71.10
70986;DHT22;58645;43.068;25.610;2022-12-07T10:26:52;15.80;70.90
70986;DHT22;58645;43.068;25.610;2022-12-07T10:32:23;15.50;72.20
70986;DHT22;58645;43.068;25.610;2022-12-07T10:34:52;15.40;73.70
70986;DHT22;58645;43.068;25.610;2022-12-07T10:37:40;15.40;73.90
70986;DHT22;58645;43.068;25.610;2022-12-07T10:43:01;15.40;72.70
70986;DHT22;58645;43.068;25.610;2022-12-07T10:45:30;15.30;73.10
70986;DHT22;58645;43.068;25.610;2022-12-07T10:50:55;15.00;73.40
70986;DHT22;58645;43.068;25.610;2022-12-07T11:01:29;15.10;74.50
70986;DHT22;58645;43.068;25.610;2022-12-07T11:15:24;15.90;70.60
70986;DHT22;58645;43.068;25.610;2022-12-07T11:17:56;15.50;70.60
70986;DHT22;58645;43.068;25.610;2022-12-07T11:20:46;15.20;72.60
70986;DHT22;58645;43.068;25.610;2022-12-07T11:32:02;15.10;73.50
70986;DHT22;58645;43.068;25.610;2022-12-07T11:34:52;15.20;73.00
70986;DHT22;58645;43.068;25.610;2022-12-07T11:37:33;15.30;73.70
70986;DHT22;58645;43.068;25.610;2022-12-07T11:40:03;15.30;73.50
70986;DHT22;58645;43.068;25.610;2022-12-07T11:42:37;15.50;73.50
70986;DHT22;58645;43.068;25.610;2022-12-07T11:45:18;16.20;71.00
70986;DHT22;58645;43.068;25.610;2022-12-07T12:03:50;14.70;76.60
70986;DHT22;58645;43.068;25.610;2022-12-07T12:06:17;14.90;80.80
70986;DHT22;58645;43.068;25.610;2022-12-07T12:09:10;15.00;79.20
70986;DHT22;58645;43.068;25.610;2022-12-07T12:17:09;14.60;76.10
70986;DHT22;58645;43.068;25.610;2022-12-07T12:19:42;14.40;77.10
70986;DHT22;58645;43.068;25.610;2022-12-07T12:24:39;13.90;79.50
70986;DHT22;58645;43.068;25.610;2022-12-07T12:27:19;13.90;79.80
70986;DHT22;58645;43.068;25.610;2022-12-07T12:29:53;13.70;81.10
70986;DHT22;58645;43.068;25.610;2022-12-07T12:32:22;13.60;82.00
70986;DHT22;58645;43.068;25.610;2022-12-07T12:42:57;13.20;83.50
70986;DHT22;58645;43.068;25.610;2022-12-07T12:48:07;13.20;83.80
70986;DHT22;58645;43.068;25.610;2022-12-07T12:54:10;13.20;83.30
70986;DHT22;58645;43.068;25.610;2022-12-07T12:56:51;13.20;84.40
70986;DHT22;58645;43.068;25.610;2022-12-07T13:04:48;13.10;83.50
70986;DHT22;58645;43.068;25.610;2022-12-07T13:15:39;12.90;86.70
70986;DHT22;58645;43.068;25.610;2022-12-07T13:20:56;12.90;86.70
70986;DHT22;58645;43.068;25.610;2022-12-07T13:23:30;12.80;87.50
70986;DHT22;58645;43.068;25.610;2022-12-07T13:26:00;12.80;88.00
70986;DHT22;58645;43.068;25.610;2022-12-07T13:28:36;12.70;88.40
70986;DHT22;58645;43.068;25.610;2022-12-07T13:33:55;12.60;89.00
70986;DHT22;58645;43.068;25.610;2022-12-07T13:36:22;12.50;89.50
70986;DHT22;58645;43.068;25.610;2022-12-07T13:41:24;12.20;90.70
70986;DHT22;58645;43.068;25.610;2022-12-07T13:44:16;12.20;91.10
70986;DHT22;58645;43.068;25.610;2022-12-07T13:49:24;12.00;93.30
70986;DHT22;58645;43.068;25.610;2022-12-07T13:51:53;12.00;94.40
70986;DHT22;58645;43.068;25.610;2022-12-07T13:54:20;12.00;93.80
70986;DHT22;58645;43.068;25.610;2022-12-07T13:56:51;11.90;93.70
70986;DHT22;58645;43.068;25.610;2022-12-07T13:59:22;11.80;94.20
70986;DHT22;58645;43.068;25.610;2022-12-07T14:01:50;11.80;94.60
70986;DHT22;58645;43.068;25.610;2022-12-07T14:04:36;11.70;95.10
70986;DHT22;58645;43.068;25.610;2022-12-07T14:07:32;11.60;94.80
70986;DHT22;58645;43.068;25.610;2022-12-07T14:09:59;11.50;95.90
70986;DHT22;58645;43.068;25.610;2022-12-07T14:12:27;11.30;96.60
70986;DHT22;58645;43.068;25.610;2022-12-07T14:14:54;11.20;97.40
70986;DHT22;58645;43.068;25.610;2022-12-07T14:17:23;11.10;98.10
70986;DHT22;58645;43.068;25.610;2022-12-07T14:19:58;11.00;98.60
70986;DHT22;58645;43.068;25.610;2022-12-07T14:22:32;10.90;99.40
70986;DHT22;58645;43.068;25.610;2022-12-07T14:27:38;10.80;99.90
70986;DHT22;58645;43.068;25.610;2022-12-07T14:30:05;10.70;99.90
70986;DHT22;58645;43.068;25.610;2022-12-07T14:32:32;10.60;99.90
70986;DHT22;58645;43.068;25.610;2022-12-07T14:35:10;10.60;99.90
70986;DHT22;58645;43.068;25.610;2022-12-07T14:37:37;10.50;99.90
70986;DHT22;58645;43.068;25.610;2022-12-07T14:40:04;10.40;99.90
70986;DHT22;58645;43.068;25.610;2022-12-07T14:42:31;10.30;99.90
70986;DHT22;58645;43.068;25.610;2022-12-07T14:44:58;10.20;99.90
70986;DHT22;58645;43.068;25.610;2022-12-07T14:47:25;10.10;99.90
70986;DHT22;58645;43.068;25.610;2022-12-07T14:49:51;10.00;99.90
70986;DHT22;58645;43.068;25.610;2022-12-07T14:52:20;10.00;99.90
70986;DHT22;58645;43.068;25.610;2022-12-07T14:54:47;9.90;99.90
70986;DHT22;58645;43.068;25.610;2022-12-07T14:57:12;9.80;99.90
70986;DHT22;58645;43.068;25.610;2022-12-07T14:59:38;9.80;99.90
70986;DHT22;58645;43.068;25.610;2022-12-07T15:02:05;9.60;99.90
70986;DHT22;58645;43.068;25.610;2022-12-07T15:04:31;9.60;99.90
70986;DHT22;58645;43.068;25.610;2022-12-07T15:07:02;9.50;99.90
70986;DHT22;58645;43.068;25.610;2022-12-07T15:09:28;9.50;99.90
70986;DHT22;58645;43.068;25.610;2022-12-07T15:11:54;9.50;99.90
70986;DHT22;58645;43.068;25.610;2022-12-07T15:14:20;9.40;99.90
70986;DHT22;58645;43.068;25.610;2022-12-07T15:16:46;9.40;99.90
70986;DHT22;58645;43.068;25.610;2022-12-07T15:19:20;9.30;99.90
70986;DHT22;58645;43.068;25.610;2022-12-07T15:21:48;9.20;99.90
70986;DHT22;58645;43.068;25.610;2022-12-07T15:24:15;9.10;99.90
70986;DHT22;58645;43.068;25.610;2022-12-07T15:26:40;9.10;99.90
70986;DHT22;58645;43.068;25.610;2022-12-07T15:29:07;9.00;99.90
70986;DHT22;58645;43.068;25.610;2022-12-07T15:31:34;9.00;99.90
70986;DHT22;58645;43.068;25.610;2022-12-07T15:34:00;9.00;99.90
70986;DHT22;58645;43.068;25.610;2022-12-07T15:36:28;8.90;99.90
70986;DHT22;58645;43.068;25.610;2022-12-07T15:38:55;8.80;99.90
70986;DHT22;58645;43.068;25.610;2022-12-07T15:41:21;8.80;99.90
70986;DHT22;58645;43.068;25.610;2022-12-07T15:43:47;8.80;99.90
70986;DHT22;58645;43.068;25.610;2022-12-07T15:46:32;8.80;99.90
70986;DHT22;58645;43.068;25.610;2022-12-07T15:48:58;8.70;99.90
70986;DHT22;58645;43.068;25.610;2022-12-07T15:51:24;8.70;99.90
70986;DHT22;58645;43.068;25.610;2022-12-07T15:53:50;8.70;99.90
70986;DHT22;58645;43.068;25.610;2022-12-07T15:56:15;8.60;99.90
70986;DHT22;58645;43.068;25.610;2022-12-07T15:58:41;8.60;99.90
70986;DHT22;58645;43.068;25.610;2022-12-07T16:01:15;8.50;99.90
70986;DHT22;58645;43.068;25.610;2022-12-07T16:03:42;8.50;99.90
70986;DHT22;58645;43.068;25.610;2022-12-07T16:06:09;8.40;99.90
70986;DHT22;58645;43.068;25.610;2022-12-07T16:08:35;8.30;99.90
70986;DHT22;58645;43.068;25.610;2022-12-07T16:11:07;8.30;99.90
70986;DHT22;58645;43.068;25.610;2022-12-07T16:13:33;8.30;99.90
70986;DHT22;58645;43.068;25.610;2022-12-07T16:16:06;8.20;99.90
70986;DHT22;58645;43.068;25.610;2022-12-07T16:18:33;8.20;99.90
70986;DHT22;58645;43.068;25.610;2022-12-07T16:20:59;8.10;99.90
70986;DHT22;58645;43.068;25.610;2022-12-07T16:23:26;8.10;99.90
70986;DHT22;58645;43.068;25.610;2022-12-07T16:25:51;8.00;99.90
70986;DHT22;58645;43.068;25.610;2022-12-07T16:28:17;8.00;99.90
70986;DHT22;58645;43.068;25.610;2022-12-07T16:30:43;8.00;99.90
70986;DHT22;58645;43.068;25.610;2022-12-07T16:33:10;8.00;99.90
70986;DHT22;58645;43.068;25.610;2022-12-07T16:35:39;7.90;99.90
70986;DHT22;58645;43.068;25.610;2022-12-07T16:38:06;7.80;99.90
70986;DHT22;58645;43.068;25.610;2022-12-07T16:40:32;7.80;99.90
70986;DHT22;58645;43.068;25.610;2022-12-07T16:42:58;7.70;99.90
70986;DHT22;58645;43.068;25.610;2022-12-07T16:45:24;7.70;99.90
70986;DHT22;58645;43.068;25.610;2022-12-07T16:47:49;7.70;99.90
70986;DHT22;58645;43.068;25.610;2022-12-07T16:50:15;7.70;99.90
70986;DHT22;58645;43.068;25.610;2022-12-07T16:52:41;7.60;99.90
70986;DHT22;58645;43.068;25.610;2022-12-07T16:55:07;7.60;99.90
70986;DHT22;58645;43.068;25.610;2022-12-07T16:57:33;7.60;99.90
70986;DHT22;58645;43.068;25.610;2022-12-07T16:59:58;7.50;99.90
70986;DHT22;58645;43.068;25.610;2022-12-07T17:02:24;7.50;99.90
70986;DHT22;58645;43.068;25.610;2022-12-07T17:04:50;7.50;99.90
70986;DHT22;58645;43.068;25.610;2022-12-07T17:07:16;7.50;99.90
70986;DHT22;58645;43.068;25.610;2022-12-07T17:09:42;7.50;99.90
70986;DHT22;58645;43.068;25.610;2022-12-07T17:12:08;7.60;99.90
70986;DHT22;58645;43.068;25.610;2022-12-07T17:14:34;7.70;99.90
70986;DHT22;58645;43.068;25.610;2022-12-07T17:17:18;7.80;99.90
70986;DHT22;58645;43.068;25.610;2022-12-07T17:19:44;8.00;99.90
70986;DHT22;58645;43.068;25.610;2022-12-07T17:22:10;8.00;99.90
70986;DHT22;58645;43.068;25.610;2022-12-07T17:24:38;8.10;99.90
70986;DHT22;58645;43.068;25.610;2022-12-07T17:27:04;8.10;99.90
70986;DHT22;58645;43.068;25.610;2022-12-07T17:29:29;8.20;99.90
70986;DHT22;58645;43.068;25.610;2022-12-07T17:31:56;8.20;99.90
70986;DHT22;58645;43.068;25.610;2022-12-07T17:34:21;8.20;99.90
70986;DHT22;58645;43.068;25.610;2022-12-07T17:36:47;8.20;99.90
70986;DHT22;58645;43.068;25.610;2022-12-07T17:39:15;8.20;99.90
70986;DHT22;58645;43.068;25.610;2022-12-07T17:41:42;8.30;99.90
70986;DHT22;58645;43.068;25.610;2022-12-07T17:44:27;8.30;99.90
70986;DHT22;58645;43.068;25.610;2022-12-07T17:46:53;8.50;99.90
70986;DHT22;58645;43.068;25.610;2022-12-07T17:49:20;8.50;99.90
70986;DHT22;58645;43.068;25.610;2022-12-07T17:51:46;8.60;99.90
70986;DHT22;58645;43.068;25.610;2022-12-07T17:54:30;8.60;99.90